Pagrindinis puslapis
METAR-TAF:

METAR-TAF

Oro uostai :

Normanton, Australija

platuma: 17-41-06S, ilguma: 141-04-12E, Aukštis: 22 m

Dabartinis oras

Ataskaita buvo paskelbta 34 minutes, ne 07:00 UTC
Vėjas 6 kt iš Rytų/Pietryčių
Temperatūra 28°C
Drėgmė 94%
Slėgis 1002 hPa
Matomumas 10 km arba daugiau
Išsisklaidę debesys ne aukštis 600 ft

METAR: YNTN 230700Z AUTO 12006KT 9999 // SCT006 28/27 Q1002

Laikas: 17:34 (07:34 UTC)


TAF: trūkstamas

Orai ataskaitas ir orų prognozės (METAR, TAF).

turimą stotys yra geltonos ir raudonos taškus žemėlapyje.

Perkelti pele per norėdami pamatyti stoties vardą.

Tada spustelėkite, norėdami matyti oro stebėjimo ir prognozės.

Norėdami pakeisti žemėlapį: spustelėkite ant žalios mygtukų su juodo kryžiaus žemyn,; žalią mygtuką su brūkšneliu, jei norite nutolinti; arba žalių rodyklių gretimoms žemėlapius.


METAR-TAF: